sensor_id;sensor_type;location;lat;lon;timestamp;P1;durP1;ratioP1;P2;durP2;ratioP2
72493;SDS011;60520;49.182;-0.348;2022-11-25T00:01:57;5.57;;;2.60;;
72493;SDS011;60520;49.182;-0.348;2022-11-25T00:04:24;9.45;;;2.53;;
72493;SDS011;60520;49.182;-0.348;2022-11-25T00:06:53;6.18;;;2.83;;
72493;SDS011;60520;49.182;-0.348;2022-11-25T00:09:20;7.55;;;2.60;;
72493;SDS011;60520;49.182;-0.348;2022-11-25T00:11:47;5.22;;;2.28;;
72493;SDS011;60520;49.182;-0.348;2022-11-25T00:14:14;6.65;;;2.60;;
72493;SDS011;60520;49.182;-0.348;2022-11-25T00:16:42;5.50;;;2.38;;
72493;SDS011;60520;49.182;-0.348;2022-11-25T00:19:09;6.47;;;2.38;;
72493;SDS011;60520;49.182;-0.348;2022-11-25T00:21:37;7.55;;;2.70;;
72493;SDS011;60520;49.182;-0.348;2022-11-25T00:24:04;6.85;;;2.70;;
72493;SDS011;60520;49.182;-0.348;2022-11-25T00:26:32;4.90;;;2.10;;
72493;SDS011;60520;49.182;-0.348;2022-11-25T00:29:00;5.38;;;2.17;;
72493;SDS011;60520;49.182;-0.348;2022-11-25T00:31:28;4.88;;;2.40;;
72493;SDS011;60520;49.182;-0.348;2022-11-25T00:33:57;4.30;;;2.33;;
72493;SDS011;60520;49.182;-0.348;2022-11-25T00:36:25;5.22;;;2.50;;
72493;SDS011;60520;49.182;-0.348;2022-11-25T00:38:52;5.50;;;2.42;;
72493;SDS011;60520;49.182;-0.348;2022-11-25T00:41:20;5.47;;;2.33;;
72493;SDS011;60520;49.182;-0.348;2022-11-25T00:44:05;5.20;;;2.20;;
72493;SDS011;60520;49.182;-0.348;2022-11-25T00:46:49;5.55;;;2.45;;
72493;SDS011;60520;49.182;-0.348;2022-11-25T00:49:18;6.07;;;2.55;;
72493;SDS011;60520;49.182;-0.348;2022-11-25T00:51:45;4.50;;;2.38;;
72493;SDS011;60520;49.182;-0.348;2022-11-25T00:54:12;5.82;;;2.40;;
72493;SDS011;60520;49.182;-0.348;2022-11-25T00:56:39;5.93;;;2.40;;
72493;SDS011;60520;49.182;-0.348;2022-11-25T00:59:06;5.95;;;2.58;;
72493;SDS011;60520;49.182;-0.348;2022-11-25T01:01:34;4.57;;;2.55;;
72493;SDS011;60520;49.182;-0.348;2022-11-25T01:04:01;8.02;;;2.22;;
72493;SDS011;60520;49.182;-0.348;2022-11-25T01:06:30;6.80;;;2.42;;
72493;SDS011;60520;49.182;-0.348;2022-11-25T01:08:57;6.40;;;2.75;;
72493;SDS011;60520;49.182;-0.348;2022-11-25T01:11:24;5.47;;;2.50;;
72493;SDS011;60520;49.182;-0.348;2022-11-25T01:13:52;6.32;;;2.42;;
72493;SDS011;60520;49.182;-0.348;2022-11-25T01:16:21;5.32;;;2.40;;
72493;SDS011;60520;49.182;-0.348;2022-11-25T01:18:48;4.63;;;2.50;;
72493;SDS011;60520;49.182;-0.348;2022-11-25T01:21:17;5.32;;;2.40;;
72493;SDS011;60520;49.182;-0.348;2022-11-25T01:23:46;5.10;;;2.47;;
72493;SDS011;60520;49.182;-0.348;2022-11-25T01:26:14;5.13;;;2.08;;
72493;SDS011;60520;49.182;-0.348;2022-11-25T01:28:42;5.95;;;2.67;;
72493;SDS011;60520;49.182;-0.348;2022-11-25T01:31:10;4.50;;;2.30;;
72493;SDS011;60520;49.182;-0.348;2022-11-25T01:33:38;7.25;;;2.47;;
72493;SDS011;60520;49.182;-0.348;2022-11-25T01:36:06;5.35;;;2.28;;
72493;SDS011;60520;49.182;-0.348;2022-11-25T01:38:33;5.30;;;2.30;;
72493;SDS011;60520;49.182;-0.348;2022-11-25T01:41:02;5.18;;;2.20;;
72493;SDS011;60520;49.182;-0.348;2022-11-25T01:43:29;5.60;;;2.38;;
72493;SDS011;60520;49.182;-0.348;2022-11-25T01:45:57;5.57;;;2.35;;
72493;SDS011;60520;49.182;-0.348;2022-11-25T01:48:31;6.00;;;2.22;;
72493;SDS011;60520;49.182;-0.348;2022-11-25T01:51:00;5.75;;;2.10;;
72493;SDS011;60520;49.182;-0.348;2022-11-25T01:53:28;6.82;;;2.50;;
72493;SDS011;60520;49.182;-0.348;2022-11-25T01:55:55;5.20;;;2.33;;
72493;SDS011;60520;49.182;-0.348;2022-11-25T01:58:25;6.10;;;2.20;;
72493;SDS011;60520;49.182;-0.348;2022-11-25T02:00:54;5.05;;;2.08;;
72493;SDS011;60520;49.182;-0.348;2022-11-25T02:03:22;6.03;;;2.10;;
72493;SDS011;60520;49.182;-0.348;2022-11-25T02:05:51;5.50;;;2.35;;
72493;SDS011;60520;49.182;-0.348;2022-11-25T02:08:21;5.95;;;2.65;;
72493;SDS011;60520;49.182;-0.348;2022-11-25T02:10:50;6.40;;;2.75;;
72493;SDS011;60520;49.182;-0.348;2022-11-25T02:13:17;5.68;;;2.40;;
72493;SDS011;60520;49.182;-0.348;2022-11-25T02:15:46;5.45;;;2.50;;
72493;SDS011;60520;49.182;-0.348;2022-11-25T02:18:13;6.18;;;2.40;;
72493;SDS011;60520;49.182;-0.348;2022-11-25T02:20:40;5.43;;;2.33;;
72493;SDS011;60520;49.182;-0.348;2022-11-25T02:23:09;5.68;;;2.20;;
72493;SDS011;60520;49.182;-0.348;2022-11-25T02:25:40;5.72;;;2.47;;
72493;SDS011;60520;49.182;-0.348;2022-11-25T02:28:08;6.32;;;2.53;;
72493;SDS011;60520;49.182;-0.348;2022-11-25T02:30:36;5.40;;;2.17;;
72493;SDS011;60520;49.182;-0.348;2022-11-25T02:33:04;6.38;;;2.17;;
72493;SDS011;60520;49.182;-0.348;2022-11-25T02:35:32;6.22;;;2.45;;
72493;SDS011;60520;49.182;-0.348;2022-11-25T02:38:02;4.22;;;2.08;;
72493;SDS011;60520;49.182;-0.348;2022-11-25T02:40:30;4.30;;;2.10;;
72493;SDS011;60520;49.182;-0.348;2022-11-25T02:42:59;5.97;;;2.20;;
72493;SDS011;60520;49.182;-0.348;2022-11-25T02:45:29;5.85;;;2.15;;
72493;SDS011;60520;49.182;-0.348;2022-11-25T02:47:58;6.07;;;2.53;;
72493;SDS011;60520;49.182;-0.348;2022-11-25T02:50:25;5.30;;;2.00;;
72493;SDS011;60520;49.182;-0.348;2022-11-25T02:52:52;5.00;;;2.33;;
72493;SDS011;60520;49.182;-0.348;2022-11-25T02:55:19;4.55;;;1.90;;
72493;SDS011;60520;49.182;-0.348;2022-11-25T02:57:47;5.55;;;2.42;;
72493;SDS011;60520;49.182;-0.348;2022-11-25T03:00:16;4.60;;;1.95;;
72493;SDS011;60520;49.182;-0.348;2022-11-25T03:02:43;5.15;;;2.40;;
72493;SDS011;60520;49.182;-0.348;2022-11-25T03:05:11;6.32;;;2.40;;
72493;SDS011;60520;49.182;-0.348;2022-11-25T03:07:38;6.05;;;2.28;;
72493;SDS011;60520;49.182;-0.348;2022-11-25T03:10:05;4.93;;;2.30;;
72493;SDS011;60520;49.182;-0.348;2022-11-25T03:12:32;3.97;;;1.83;;
72493;SDS011;60520;49.182;-0.348;2022-11-25T03:14:59;4.88;;;2.20;;
72493;SDS011;60520;49.182;-0.348;2022-11-25T03:17:28;6.80;;;2.20;;
72493;SDS011;60520;49.182;-0.348;2022-11-25T03:19:55;5.95;;;2.15;;
72493;SDS011;60520;49.182;-0.348;2022-11-25T03:22:22;5.10;;;2.40;;
72493;SDS011;60520;49.182;-0.348;2022-11-25T03:24:50;5.50;;;2.25;;
72493;SDS011;60520;49.182;-0.348;2022-11-25T03:27:17;5.88;;;2.22;;
72493;SDS011;60520;49.182;-0.348;2022-11-25T03:29:44;5.45;;;2.13;;
72493;SDS011;60520;49.182;-0.348;2022-11-25T03:32:11;5.07;;;1.90;;
72493;SDS011;60520;49.182;-0.348;2022-11-25T03:34:39;5.80;;;2.35;;
72493;SDS011;60520;49.182;-0.348;2022-11-25T03:37:07;5.15;;;2.13;;
72493;SDS011;60520;49.182;-0.348;2022-11-25T03:39:34;5.82;;;2.13;;
72493;SDS011;60520;49.182;-0.348;2022-11-25T03:42:01;5.25;;;2.05;;
72493;SDS011;60520;49.182;-0.348;2022-11-25T03:44:28;5.72;;;2.30;;
72493;SDS011;60520;49.182;-0.348;2022-11-25T03:46:55;5.32;;;2.20;;
72493;SDS011;60520;49.182;-0.348;2022-11-25T03:49:22;7.13;;;2.53;;
72493;SDS011;60520;49.182;-0.348;2022-11-25T03:51:51;5.65;;;2.45;;
72493;SDS011;60520;49.182;-0.348;2022-11-25T03:54:18;4.95;;;2.10;;
72493;SDS011;60520;49.182;-0.348;2022-11-25T03:56:45;5.55;;;2.10;;
72493;SDS011;60520;49.182;-0.348;2022-11-25T03:59:12;4.07;;;1.88;;
72493;SDS011;60520;49.182;-0.348;2022-11-25T04:01:39;4.85;;;1.95;;
72493;SDS011;60520;49.182;-0.348;2022-11-25T04:04:06;5.65;;;2.47;;
72493;SDS011;60520;49.182;-0.348;2022-11-25T04:06:33;4.45;;;1.90;;
72493;SDS011;60520;49.182;-0.348;2022-11-25T04:09:04;5.57;;;2.25;;
72493;SDS011;60520;49.182;-0.348;2022-11-25T04:11:31;4.30;;;2.00;;
72493;SDS011;60520;49.182;-0.348;2022-11-25T04:14:16;4.57;;;1.80;;
72493;SDS011;60520;49.182;-0.348;2022-11-25T04:16:43;4.20;;;2.00;;
72493;SDS011;60520;49.182;-0.348;2022-11-25T04:19:10;5.78;;;2.03;;
72493;SDS011;60520;49.182;-0.348;2022-11-25T04:21:38;3.67;;;1.90;;
72493;SDS011;60520;49.182;-0.348;2022-11-25T04:24:06;5.07;;;1.80;;
72493;SDS011;60520;49.182;-0.348;2022-11-25T04:26:34;4.20;;;2.03;;
72493;SDS011;60520;49.182;-0.348;2022-11-25T04:29:01;3.78;;;1.92;;
72493;SDS011;60520;49.182;-0.348;2022-11-25T04:31:28;4.47;;;2.10;;
72493;SDS011;60520;49.182;-0.348;2022-11-25T04:33:55;4.28;;;2.10;;
72493;SDS011;60520;49.182;-0.348;2022-11-25T04:36:22;3.70;;;1.83;;
72493;SDS011;60520;49.182;-0.348;2022-11-25T04:38:49;5.03;;;2.03;;
72493;SDS011;60520;49.182;-0.348;2022-11-25T04:41:18;5.40;;;1.70;;
72493;SDS011;60520;49.182;-0.348;2022-11-25T04:43:45;5.00;;;2.28;;
72493;SDS011;60520;49.182;-0.348;2022-11-25T04:46:13;5.15;;;1.88;;
72493;SDS011;60520;49.182;-0.348;2022-11-25T04:48:40;6.10;;;2.13;;
72493;SDS011;60520;49.182;-0.348;2022-11-25T04:51:07;5.07;;;1.98;;
72493;SDS011;60520;49.182;-0.348;2022-11-25T04:53:34;4.93;;;1.98;;
72493;SDS011;60520;49.182;-0.348;2022-11-25T04:56:01;4.85;;;2.00;;
72493;SDS011;60520;49.182;-0.348;2022-11-25T04:58:30;5.28;;;2.10;;
72493;SDS011;60520;49.182;-0.348;2022-11-25T05:01:15;4.18;;;2.05;;
72493;SDS011;60520;49.182;-0.348;2022-11-25T05:03:42;5.20;;;2.28;;
72493;SDS011;60520;49.182;-0.348;2022-11-25T05:06:09;4.97;;;1.88;;
72493;SDS011;60520;49.182;-0.348;2022-11-25T05:08:36;4.75;;;1.85;;
72493;SDS011;60520;49.182;-0.348;2022-11-25T05:11:03;5.82;;;2.08;;
72493;SDS011;60520;49.182;-0.348;2022-11-25T05:13:32;4.30;;;1.98;;
72493;SDS011;60520;49.182;-0.348;2022-11-25T05:15:59;5.07;;;2.30;;
72493;SDS011;60520;49.182;-0.348;2022-11-25T05:18:26;4.90;;;1.98;;
72493;SDS011;60520;49.182;-0.348;2022-11-25T05:20:53;4.47;;;1.85;;
72493;SDS011;60520;49.182;-0.348;2022-11-25T05:23:20;4.05;;;1.83;;
72493;SDS011;60520;49.182;-0.348;2022-11-25T05:25:47;6.10;;;2.00;;
72493;SDS011;60520;49.182;-0.348;2022-11-25T05:28:14;4.32;;;2.10;;
72493;SDS011;60520;49.182;-0.348;2022-11-25T05:30:43;3.95;;;1.58;;
72493;SDS011;60520;49.182;-0.348;2022-11-25T05:33:10;6.30;;;2.05;;
72493;SDS011;60520;49.182;-0.348;2022-11-25T05:35:37;5.88;;;2.00;;
72493;SDS011;60520;49.182;-0.348;2022-11-25T05:38:04;3.08;;;1.67;;
72493;SDS011;60520;49.182;-0.348;2022-11-25T05:40:31;5.68;;;2.22;;
72493;SDS011;60520;49.182;-0.348;2022-11-25T05:42:59;3.90;;;1.92;;
72493;SDS011;60520;49.182;-0.348;2022-11-25T05:45:27;6.70;;;1.98;;
72493;SDS011;60520;49.182;-0.348;2022-11-25T05:47:55;6.22;;;1.83;;
72493;SDS011;60520;49.182;-0.348;2022-11-25T05:50:22;5.25;;;1.77;;
72493;SDS011;60520;49.182;-0.348;2022-11-25T05:52:49;4.57;;;2.10;;
72493;SDS011;60520;49.182;-0.348;2022-11-25T05:55:16;5.63;;;2.13;;
72493;SDS011;60520;49.182;-0.348;2022-11-25T05:57:44;4.78;;;1.92;;
72493;SDS011;60520;49.182;-0.348;2022-11-25T06:00:11;4.70;;;1.88;;
72493;SDS011;60520;49.182;-0.348;2022-11-25T06:02:38;5.97;;;1.92;;
72493;SDS011;60520;49.182;-0.348;2022-11-25T06:05:07;4.03;;;1.83;;
72493;SDS011;60520;49.182;-0.348;2022-11-25T06:07:34;3.47;;;1.63;;
72493;SDS011;60520;49.182;-0.348;2022-11-25T06:10:02;4.57;;;1.60;;
72493;SDS011;60520;49.182;-0.348;2022-11-25T06:12:29;3.42;;;1.48;;
72493;SDS011;60520;49.182;-0.348;2022-11-25T06:14:56;4.18;;;1.65;;
72493;SDS011;60520;49.182;-0.348;2022-11-25T06:17:23;3.63;;;1.55;;
72493;SDS011;60520;49.182;-0.348;2022-11-25T06:19:50;2.33;;;1.30;;
72493;SDS011;60520;49.182;-0.348;2022-11-25T06:22:19;2.95;;;1.35;;
72493;SDS011;60520;49.182;-0.348;2022-11-25T06:24:46;3.03;;;1.23;;
72493;SDS011;60520;49.182;-0.348;2022-11-25T06:27:13;2.78;;;1.20;;
72493;SDS011;60520;49.182;-0.348;2022-11-25T06:29:40;2.15;;;1.13;;
72493;SDS011;60520;49.182;-0.348;2022-11-25T06:32:07;2.65;;;1.20;;
72493;SDS011;60520;49.182;-0.348;2022-11-25T06:34:34;2.88;;;1.20;;
72493;SDS011;60520;49.182;-0.348;2022-11-25T06:37:05;2.80;;;1.10;;
72493;SDS011;60520;49.182;-0.348;2022-11-25T06:39:34;2.08;;;1.00;;
72493;SDS011;60520;49.182;-0.348;2022-11-25T06:42:01;3.60;;;1.10;;
72493;SDS011;60520;49.182;-0.348;2022-11-25T06:44:28;1.90;;;0.90;;
72493;SDS011;60520;49.182;-0.348;2022-11-25T06:46:55;2.47;;;0.80;;
72493;SDS011;60520;49.182;-0.348;2022-11-25T06:49:22;2.85;;;1.00;;
72493;SDS011;60520;49.182;-0.348;2022-11-25T06:51:50;1.88;;;0.93;;
72493;SDS011;60520;49.182;-0.348;2022-11-25T06:54:17;2.08;;;1.10;;
72493;SDS011;60520;49.182;-0.348;2022-11-25T06:56:45;2.22;;;1.08;;
72493;SDS011;60520;49.182;-0.348;2022-11-25T06:59:17;2.10;;;0.95;;
72493;SDS011;60520;49.182;-0.348;2022-11-25T07:01:44;1.58;;;0.82;;
72493;SDS011;60520;49.182;-0.348;2022-11-25T07:04:12;2.53;;;1.10;;
72493;SDS011;60520;49.182;-0.348;2022-11-25T07:06:39;1.85;;;0.90;;
72493;SDS011;60520;49.182;-0.348;2022-11-25T07:09:06;2.08;;;1.00;;
72493;SDS011;60520;49.182;-0.348;2022-11-25T07:11:34;1.50;;;0.80;;
72493;SDS011;60520;49.182;-0.348;2022-11-25T07:14:03;1.45;;;0.90;;
72493;SDS011;60520;49.182;-0.348;2022-11-25T07:16:31;2.10;;;1.10;;
72493;SDS011;60520;49.182;-0.348;2022-11-25T07:18:58;1.67;;;0.80;;
72493;SDS011;60520;49.182;-0.348;2022-11-25T07:21:26;2.42;;;0.85;;
72493;SDS011;60520;49.182;-0.348;2022-11-25T07:23:54;1.05;;;0.60;;
72493;SDS011;60520;49.182;-0.348;2022-11-25T07:26:22;1.77;;;0.73;;
72493;SDS011;60520;49.182;-0.348;2022-11-25T07:28:50;1.73;;;0.90;;
72493;SDS011;60520;49.182;-0.348;2022-11-25T07:31:20;1.17;;;0.80;;
72493;SDS011;60520;49.182;-0.348;2022-11-25T07:33:50;1.17;;;0.80;;
72493;SDS011;60520;49.182;-0.348;2022-11-25T07:36:17;1.10;;;0.80;;
72493;SDS011;60520;49.182;-0.348;2022-11-25T07:38:44;1.48;;;0.77;;
72493;SDS011;60520;49.182;-0.348;2022-11-25T07:41:12;1.45;;;0.70;;
72493;SDS011;60520;49.182;-0.348;2022-11-25T07:43:41;1.40;;;0.80;;
72493;SDS011;60520;49.182;-0.348;2022-11-25T07:46:10;1.73;;;0.90;;
72493;SDS011;60520;49.182;-0.348;2022-11-25T07:48:39;1.80;;;0.82;;
72493;SDS011;60520;49.182;-0.348;2022-11-25T07:51:12;1.25;;;0.73;;
72493;SDS011;60520;49.182;-0.348;2022-11-25T07:53:39;1.40;;;0.70;;
72493;SDS011;60520;49.182;-0.348;2022-11-25T07:56:06;2.22;;;1.00;;
72493;SDS011;60520;49.182;-0.348;2022-11-25T07:58:33;1.23;;;0.80;;
72493;SDS011;60520;49.182;-0.348;2022-11-25T08:01:01;1.38;;;0.85;;
72493;SDS011;60520;49.182;-0.348;2022-11-25T08:03:28;1.42;;;0.70;;
72493;SDS011;60520;49.182;-0.348;2022-11-25T08:05:59;1.80;;;0.85;;
72493;SDS011;60520;49.182;-0.348;2022-11-25T08:08:27;1.63;;;0.80;;
72493;SDS011;60520;49.182;-0.348;2022-11-25T08:10:54;1.20;;;0.75;;
72493;SDS011;60520;49.182;-0.348;2022-11-25T08:13:21;1.83;;;0.90;;
72493;SDS011;60520;49.182;-0.348;2022-11-25T08:15:48;1.52;;;0.70;;
72493;SDS011;60520;49.182;-0.348;2022-11-25T08:18:16;2.75;;;0.98;;
72493;SDS011;60520;49.182;-0.348;2022-11-25T08:20:43;2.13;;;0.90;;
72493;SDS011;60520;49.182;-0.348;2022-11-25T08:23:11;2.63;;;1.00;;
72493;SDS011;60520;49.182;-0.348;2022-11-25T08:25:39;2.40;;;1.00;;
72493;SDS011;60520;49.182;-0.348;2022-11-25T08:28:06;3.08;;;1.23;;
72493;SDS011;60520;49.182;-0.348;2022-11-25T08:30:34;1.98;;;1.00;;
72493;SDS011;60520;49.182;-0.348;2022-11-25T08:33:01;3.00;;;0.98;;
72493;SDS011;60520;49.182;-0.348;2022-11-25T08:35:31;1.88;;;0.93;;
72493;SDS011;60520;49.182;-0.348;2022-11-25T08:38:01;2.67;;;1.00;;
72493;SDS011;60520;49.182;-0.348;2022-11-25T08:40:30;2.20;;;1.10;;
72493;SDS011;60520;49.182;-0.348;2022-11-25T08:42:57;3.08;;;1.10;;
72493;SDS011;60520;49.182;-0.348;2022-11-25T08:45:24;3.40;;;1.08;;
72493;SDS011;60520;49.182;-0.348;2022-11-25T08:47:51;2.00;;;1.08;;
72493;SDS011;60520;49.182;-0.348;2022-11-25T08:50:19;6.80;;;1.63;;
72493;SDS011;60520;49.182;-0.348;2022-11-25T08:52:47;9.88;;;2.08;;
72493;SDS011;60520;49.182;-0.348;2022-11-25T08:55:14;9.48;;;1.90;;
72493;SDS011;60520;49.182;-0.348;2022-11-25T08:57:43;13.95;;;1.98;;
72493;SDS011;60520;49.182;-0.348;2022-11-25T09:00:10;15.35;;;2.53;;
72493;SDS011;60520;49.182;-0.348;2022-11-25T09:02:38;17.48;;;2.35;;
72493;SDS011;60520;49.182;-0.348;2022-11-25T09:05:05;16.88;;;2.70;;
72493;SDS011;60520;49.182;-0.348;2022-11-25T09:07:32;13.60;;;2.28;;
72493;SDS011;60520;49.182;-0.348;2022-11-25T09:09:59;12.25;;;2.05;;
72493;SDS011;60520;49.182;-0.348;2022-11-25T09:12:26;16.40;;;2.30;;
72493;SDS011;60520;49.182;-0.348;2022-11-25T09:14:55;15.32;;;2.38;;
72493;SDS011;60520;49.182;-0.348;2022-11-25T09:17:22;18.27;;;2.42;;
72493;SDS011;60520;49.182;-0.348;2022-11-25T09:19:49;12.00;;;1.90;;
72493;SDS011;60520;49.182;-0.348;2022-11-25T09:22:16;16.50;;;2.20;;
72493;SDS011;60520;49.182;-0.348;2022-11-25T09:24:43;14.73;;;2.30;;
72493;SDS011;60520;49.182;-0.348;2022-11-25T09:27:10;13.75;;;2.45;;
72493;SDS011;60520;49.182;-0.348;2022-11-25T09:29:38;12.30;;;2.08;;
72493;SDS011;60520;49.182;-0.348;2022-11-25T09:32:06;15.95;;;2.70;;
72493;SDS011;60520;49.182;-0.348;2022-11-25T09:34:33;15.02;;;2.40;;
72493;SDS011;60520;49.182;-0.348;2022-11-25T09:37:00;13.13;;;1.90;;
72493;SDS011;60520;49.182;-0.348;2022-11-25T09:39:27;14.13;;;2.67;;
72493;SDS011;60520;49.182;-0.348;2022-11-25T09:41:58;16.13;;;2.35;;
72493;SDS011;60520;49.182;-0.348;2022-11-25T09:44:47;11.20;;;2.28;;
72493;SDS011;60520;49.182;-0.348;2022-11-25T09:47:38;11.63;;;1.80;;
72493;SDS011;60520;49.182;-0.348;2022-11-25T09:50:11;12.25;;;2.35;;
72493;SDS011;60520;49.182;-0.348;2022-11-25T09:52:41;13.75;;;2.38;;
72493;SDS011;60520;49.182;-0.348;2022-11-25T09:55:13;19.88;;;2.50;;
72493;SDS011;60520;49.182;-0.348;2022-11-25T09:57:45;10.80;;;2.08;;
72493;SDS011;60520;49.182;-0.348;2022-11-25T10:00:13;11.35;;;2.08;;
72493;SDS011;60520;49.182;-0.348;2022-11-25T10:02:44;8.30;;;1.98;;
72493;SDS011;60520;49.182;-0.348;2022-11-25T10:05:13;9.07;;;1.65;;
72493;SDS011;60520;49.182;-0.348;2022-11-25T10:07:42;11.50;;;1.70;;
72493;SDS011;60520;49.182;-0.348;2022-11-25T10:10:13;6.45;;;1.50;;
72493;SDS011;60520;49.182;-0.348;2022-11-25T10:12:42;8.93;;;1.75;;
72493;SDS011;60520;49.182;-0.348;2022-11-25T10:15:12;9.48;;;1.70;;
72493;SDS011;60520;49.182;-0.348;2022-11-25T10:17:44;8.07;;;1.73;;
72493;SDS011;60520;49.182;-0.348;2022-11-25T10:20:16;4.85;;;1.50;;
72493;SDS011;60520;49.182;-0.348;2022-11-25T10:22:46;11.00;;;1.85;;
72493;SDS011;60520;49.182;-0.348;2022-11-25T10:25:14;7.18;;;1.70;;
72493;SDS011;60520;49.182;-0.348;2022-11-25T10:27:42;9.98;;;1.83;;
72493;SDS011;60520;49.182;-0.348;2022-11-25T10:30:12;10.63;;;1.83;;
72493;SDS011;60520;49.182;-0.348;2022-11-25T10:32:42;9.02;;;1.40;;
72493;SDS011;60520;49.182;-0.348;2022-11-25T10:35:16;12.02;;;1.65;;
72493;SDS011;60520;49.182;-0.348;2022-11-25T10:37:45;11.27;;;1.75;;
72493;SDS011;60520;49.182;-0.348;2022-11-25T10:40:13;7.50;;;1.60;;
72493;SDS011;60520;49.182;-0.348;2022-11-25T10:42:41;5.40;;;1.33;;
72493;SDS011;60520;49.182;-0.348;2022-11-25T10:45:08;4.78;;;1.40;;
72493;SDS011;60520;49.182;-0.348;2022-11-25T10:47:37;8.20;;;1.52;;
72493;SDS011;60520;49.182;-0.348;2022-11-25T10:50:15;6.85;;;1.50;;
72493;SDS011;60520;49.182;-0.348;2022-11-25T10:52:45;8.23;;;1.65;;
72493;SDS011;60520;49.182;-0.348;2022-11-25T10:55:14;4.75;;;1.55;;
72493;SDS011;60520;49.182;-0.348;2022-11-25T10:57:42;7.10;;;1.60;;
72493;SDS011;60520;49.182;-0.348;2022-11-25T11:00:22;6.68;;;1.50;;
72493;SDS011;60520;49.182;-0.348;2022-11-25T11:02:53;10.05;;;1.60;;
72493;SDS011;60520;49.182;-0.348;2022-11-25T11:05:22;8.00;;;1.63;;
72493;SDS011;60520;49.182;-0.348;2022-11-25T11:08:06;6.85;;;2.33;;
72493;SDS011;60520;49.182;-0.348;2022-11-25T11:10:33;8.95;;;2.28;;
72493;SDS011;60520;49.182;-0.348;2022-11-25T11:13:01;10.27;;;2.20;;
72493;SDS011;60520;49.182;-0.348;2022-11-25T11:15:29;7.35;;;2.00;;
72493;SDS011;60520;49.182;-0.348;2022-11-25T11:17:58;4.15;;;1.55;;
72493;SDS011;60520;49.182;-0.348;2022-11-25T11:20:27;6.20;;;1.70;;
72493;SDS011;60520;49.182;-0.348;2022-11-25T11:22:56;5.07;;;1.67;;
72493;SDS011;60520;49.182;-0.348;2022-11-25T11:25:25;5.07;;;1.63;;
72493;SDS011;60520;49.182;-0.348;2022-11-25T11:27:52;5.72;;;1.40;;
72493;SDS011;60520;49.182;-0.348;2022-11-25T11:30:20;7.75;;;1.58;;
72493;SDS011;60520;49.182;-0.348;2022-11-25T11:32:53;6.50;;;1.65;;
72493;SDS011;60520;49.182;-0.348;2022-11-25T11:35:22;6.75;;;1.70;;
72493;SDS011;60520;49.182;-0.348;2022-11-25T11:37:53;6.00;;;1.50;;
72493;SDS011;60520;49.182;-0.348;2022-11-25T11:40:24;4.75;;;1.48;;
72493;SDS011;60520;49.182;-0.348;2022-11-25T11:42:56;6.22;;;1.60;;
72493;SDS011;60520;49.182;-0.348;2022-11-25T11:45:29;6.32;;;1.50;;
72493;SDS011;60520;49.182;-0.348;2022-11-25T11:48:07;6.55;;;1.45;;
72493;SDS011;60520;49.182;-0.348;2022-11-25T11:50:38;3.33;;;1.30;;
72493;SDS011;60520;49.182;-0.348;2022-11-25T11:53:10;2.83;;;0.98;;
72493;SDS011;60520;49.182;-0.348;2022-11-25T11:55:47;2.70;;;1.30;;
72493;SDS011;60520;49.182;-0.348;2022-11-25T11:58:19;5.47;;;1.40;;
72493;SDS011;60520;49.182;-0.348;2022-11-25T12:00:51;3.72;;;1.35;;
72493;SDS011;60520;49.182;-0.348;2022-11-25T12:03:20;3.28;;;1.33;;
72493;SDS011;60520;49.182;-0.348;2022-11-25T12:05:48;3.45;;;1.00;;
72493;SDS011;60520;49.182;-0.348;2022-11-25T12:08:22;3.85;;;1.13;;
72493;SDS011;60520;49.182;-0.348;2022-11-25T12:10:54;3.35;;;1.20;;
72493;SDS011;60520;49.182;-0.348;2022-11-25T12:13:24;4.03;;;1.10;;
72493;SDS011;60520;49.182;-0.348;2022-11-25T12:15:53;2.58;;;1.13;;
72493;SDS011;60520;49.182;-0.348;2022-11-25T12:18:30;3.00;;;0.93;;
72493;SDS011;60520;49.182;-0.348;2022-11-25T12:21:00;6.30;;;1.30;;
72493;SDS011;60520;49.182;-0.348;2022-11-25T12:23:31;3.40;;;1.40;;
72493;SDS011;60520;49.182;-0.348;2022-11-25T12:26:04;2.33;;;1.10;;
72493;SDS011;60520;49.182;-0.348;2022-11-25T12:28:34;2.33;;;0.90;;
72493;SDS011;60520;49.182;-0.348;2022-11-25T12:31:05;6.20;;;1.48;;
72493;SDS011;60520;49.182;-0.348;2022-11-25T12:33:38;2.63;;;1.00;;
72493;SDS011;60520;49.182;-0.348;2022-11-25T12:36:08;3.60;;;1.25;;
72493;SDS011;60520;49.182;-0.348;2022-11-25T12:38:42;3.20;;;1.00;;
72493;SDS011;60520;49.182;-0.348;2022-11-25T12:41:13;3.92;;;1.08;;
72493;SDS011;60520;49.182;-0.348;2022-11-25T12:43:44;4.22;;;1.30;;
72493;SDS011;60520;49.182;-0.348;2022-11-25T12:46:18;4.45;;;1.20;;
72493;SDS011;60520;49.182;-0.348;2022-11-25T12:48:47;4.47;;;1.20;;
72493;SDS011;60520;49.182;-0.348;2022-11-25T12:51:21;3.53;;;1.20;;
72493;SDS011;60520;49.182;-0.348;2022-11-25T12:53:56;5.85;;;1.20;;
72493;SDS011;60520;49.182;-0.348;2022-11-25T12:56:30;2.63;;;1.00;;
72493;SDS011;60520;49.182;-0.348;2022-11-25T12:59:05;4.85;;;1.20;;
72493;SDS011;60520;49.182;-0.348;2022-11-25T13:01:51;3.17;;;1.10;;
72493;SDS011;60520;49.182;-0.348;2022-11-25T13:04:32;4.18;;;1.20;;
72493;SDS011;60520;49.182;-0.348;2022-11-25T13:09:58;5.82;;;1.25;;
72493;SDS011;60520;49.182;-0.348;2022-11-25T13:12:31;12.15;;;8.90;;
72493;SDS011;60520;49.182;-0.348;2022-11-25T13:15:23;9.25;;;4.10;;
72493;SDS011;60520;49.182;-0.348;2022-11-25T13:17:53;5.05;;;2.40;;
72493;SDS011;60520;49.182;-0.348;2022-11-25T13:20:36;5.50;;;2.30;;
72493;SDS011;60520;49.182;-0.348;2022-11-25T13:23:05;5.00;;;2.22;;
72493;SDS011;60520;49.182;-0.348;2022-11-25T13:25:36;4.88;;;2.20;;
72493;SDS011;60520;49.182;-0.348;2022-11-25T13:28:03;6.70;;;2.20;;
72493;SDS011;60520;49.182;-0.348;2022-11-25T13:30:35;4.18;;;1.52;;
72493;SDS011;60520;49.182;-0.348;2022-11-25T13:35:51;6.68;;;1.67;;
72493;SDS011;60520;49.182;-0.348;2022-11-25T13:41:23;3.58;;;1.45;;
72493;SDS011;60520;49.182;-0.348;2022-11-25T13:43:51;16.90;;;9.27;;
72493;SDS011;60520;49.182;-0.348;2022-11-25T13:46:26;7.55;;;3.90;;
72493;SDS011;60520;49.182;-0.348;2022-11-25T13:48:53;7.35;;;3.28;;
72493;SDS011;60520;49.182;-0.348;2022-11-25T13:51:21;5.53;;;2.15;;
72493;SDS011;60520;49.182;-0.348;2022-11-25T13:53:49;11.38;;;2.60;;
72493;SDS011;60520;49.182;-0.348;2022-11-25T13:56:24;3.30;;;1.70;;
72493;SDS011;60520;49.182;-0.348;2022-11-25T14:01:51;4.05;;;1.83;;
72493;SDS011;60520;49.182;-0.348;2022-11-25T14:04:19;6.15;;;2.13;;
72493;SDS011;60520;49.182;-0.348;2022-11-25T14:06:51;11.52;;;2.47;;
72493;SDS011;60520;49.182;-0.348;2022-11-25T14:09:31;10.07;;;2.30;;
72493;SDS011;60520;49.182;-0.348;2022-11-25T14:12:13;21.45;;;2.10;;
72493;SDS011;60520;49.182;-0.348;2022-11-25T14:14:51;40.28;;;3.40;;
72493;SDS011;60520;49.182;-0.348;2022-11-25T14:17:39;9.00;;;2.38;;
72493;SDS011;60520;49.182;-0.348;2022-11-25T14:20:15;25.00;;;2.65;;
72493;SDS011;60520;49.182;-0.348;2022-11-25T14:25:43;16.50;;;2.35;;
72493;SDS011;60520;49.182;-0.348;2022-11-25T14:28:24;12.82;;;2.58;;
72493;SDS011;60520;49.182;-0.348;2022-11-25T14:30:53;12.82;;;2.25;;
72493;SDS011;60520;49.182;-0.348;2022-11-25T14:33:24;24.52;;;3.28;;
72493;SDS011;60520;49.182;-0.348;2022-11-25T14:35:53;24.85;;;3.28;;
72493;SDS011;60520;49.182;-0.348;2022-11-25T14:38:22;34.20;;;3.63;;
72493;SDS011;60520;49.182;-0.348;2022-11-25T14:40:52;31.30;;;5.43;;
72493;SDS011;60520;49.182;-0.348;2022-11-25T14:43:22;44.83;;;5.50;;
72493;SDS011;60520;49.182;-0.348;2022-11-25T14:48:31;52.13;;;5.03;;
72493;SDS011;60520;49.182;-0.348;2022-11-25T14:50:59;22.92;;;4.00;;
72493;SDS011;60520;49.182;-0.348;2022-11-25T14:53:27;23.20;;;3.33;;
72493;SDS011;60520;49.182;-0.348;2022-11-25T14:55:54;18.52;;;3.28;;
72493;SDS011;60520;49.182;-0.348;2022-11-25T14:58:25;17.75;;;3.35;;
72493;SDS011;60520;49.182;-0.348;2022-11-25T15:00:58;22.83;;;3.17;;
72493;SDS011;60520;49.182;-0.348;2022-11-25T15:03:25;18.73;;;3.17;;